Boston, Massachusetts
Traffic Map
Current Weather Conditions
Boston, Massachusetts
Clear
Clear

Feels Like: 4°
Wind Chill: Ceiling: Unl
Heat Index: Visibility: 10mi
Dew Point: Wind: 10mph
Humidity: 60% Direction: 320° (NW)
Pressure: 30.17in Gusts: 0mph
Raw Report DataKBOS 190854Z 32009KT 10SM CLR 07/00 A3017 RMK AO2 SLP216 T00720000 53020
Traffic Incident Summary
Active as of:
Severity:
Category:
InformationThere was an issue retrieving the traffic information for this location. Please try a different location or try again shortly.
Advertisements
Track Severe Weather on mobile